sensor_id;sensor_type;location;lat;lon;timestamp;P1;durP1;ratioP1;P2;durP2;ratioP2
18875;SDS011;9570;50.854;13.778;2022-12-16T00:00:20;13.10;;;7.57;;
18875;SDS011;9570;50.854;13.778;2022-12-16T00:02:47;11.70;;;7.05;;
18875;SDS011;9570;50.854;13.778;2022-12-16T00:05:12;10.83;;;6.43;;
18875;SDS011;9570;50.854;13.778;2022-12-16T00:07:38;13.93;;;7.77;;
18875;SDS011;9570;50.854;13.778;2022-12-16T00:10:04;12.33;;;6.83;;
18875;SDS011;9570;50.854;13.778;2022-12-16T00:12:30;11.48;;;6.70;;
18875;SDS011;9570;50.854;13.778;2022-12-16T00:14:56;12.30;;;7.00;;
18875;SDS011;9570;50.854;13.778;2022-12-16T00:17:21;13.90;;;7.50;;
18875;SDS011;9570;50.854;13.778;2022-12-16T00:19:47;11.20;;;6.63;;
18875;SDS011;9570;50.854;13.778;2022-12-16T00:22:12;9.40;;;6.30;;
18875;SDS011;9570;50.854;13.778;2022-12-16T00:24:38;10.33;;;6.73;;
18875;SDS011;9570;50.854;13.778;2022-12-16T00:27:03;14.07;;;7.10;;
18875;SDS011;9570;50.854;13.778;2022-12-16T00:29:29;10.03;;;6.03;;
18875;SDS011;9570;50.854;13.778;2022-12-16T00:31:54;11.03;;;6.30;;
18875;SDS011;9570;50.854;13.778;2022-12-16T00:34:20;10.93;;;6.40;;
18875;SDS011;9570;50.854;13.778;2022-12-16T00:36:45;10.90;;;6.43;;
18875;SDS011;9570;50.854;13.778;2022-12-16T00:39:11;10.50;;;6.00;;
18875;SDS011;9570;50.854;13.778;2022-12-16T00:41:36;10.37;;;6.43;;
18875;SDS011;9570;50.854;13.778;2022-12-16T00:44:02;9.67;;;5.90;;
18875;SDS011;9570;50.854;13.778;2022-12-16T00:46:28;9.75;;;6.07;;
18875;SDS011;9570;50.854;13.778;2022-12-16T00:48:53;11.47;;;6.60;;
18875;SDS011;9570;50.854;13.778;2022-12-16T00:51:19;10.20;;;6.00;;
18875;SDS011;9570;50.854;13.778;2022-12-16T00:53:45;13.17;;;6.20;;
18875;SDS011;9570;50.854;13.778;2022-12-16T00:56:11;11.33;;;6.70;;
18875;SDS011;9570;50.854;13.778;2022-12-16T00:58:42;9.80;;;5.82;;
18875;SDS011;9570;50.854;13.778;2022-12-16T01:01:07;9.87;;;6.07;;
18875;SDS011;9570;50.854;13.778;2022-12-16T01:03:33;9.77;;;5.73;;
18875;SDS011;9570;50.854;13.778;2022-12-16T01:05:59;10.37;;;6.00;;
18875;SDS011;9570;50.854;13.778;2022-12-16T01:08:25;10.00;;;5.83;;
18875;SDS011;9570;50.854;13.778;2022-12-16T01:10:54;9.00;;;5.70;;
18875;SDS011;9570;50.854;13.778;2022-12-16T01:13:22;9.18;;;5.95;;
18875;SDS011;9570;50.854;13.778;2022-12-16T01:15:49;10.52;;;6.30;;
18875;SDS011;9570;50.854;13.778;2022-12-16T01:18:15;8.52;;;5.80;;
18875;SDS011;9570;50.854;13.778;2022-12-16T01:20:41;10.60;;;5.72;;
18875;SDS011;9570;50.854;13.778;2022-12-16T01:23:06;10.93;;;5.60;;
18875;SDS011;9570;50.854;13.778;2022-12-16T01:25:32;10.63;;;6.00;;
18875;SDS011;9570;50.854;13.778;2022-12-16T01:27:58;9.40;;;5.70;;
18875;SDS011;9570;50.854;13.778;2022-12-16T01:30:23;11.37;;;6.60;;
18875;SDS011;9570;50.854;13.778;2022-12-16T01:32:49;12.33;;;6.80;;
18875;SDS011;9570;50.854;13.778;2022-12-16T01:35:14;9.60;;;6.10;;
18875;SDS011;9570;50.854;13.778;2022-12-16T01:37:40;12.30;;;7.07;;
18875;SDS011;9570;50.854;13.778;2022-12-16T01:40:06;13.43;;;6.77;;
18875;SDS011;9570;50.854;13.778;2022-12-16T01:42:33;14.30;;;7.28;;
18875;SDS011;9570;50.854;13.778;2022-12-16T01:47:52;12.07;;;7.07;;
18875;SDS011;9570;50.854;13.778;2022-12-16T01:50:22;12.00;;;6.45;;
18875;SDS011;9570;50.854;13.778;2022-12-16T01:52:50;12.05;;;6.95;;
18875;SDS011;9570;50.854;13.778;2022-12-16T01:55:21;13.20;;;6.72;;
18875;SDS011;9570;50.854;13.778;2022-12-16T01:57:53;12.43;;;6.88;;
18875;SDS011;9570;50.854;13.778;2022-12-16T02:00:22;12.18;;;6.75;;
18875;SDS011;9570;50.854;13.778;2022-12-16T02:02:48;14.43;;;7.27;;
18875;SDS011;9570;50.854;13.778;2022-12-16T02:05:15;15.32;;;7.68;;
18875;SDS011;9570;50.854;13.778;2022-12-16T02:07:51;15.27;;;7.10;;
18875;SDS011;9570;50.854;13.778;2022-12-16T02:27:08;12.43;;;6.97;;
18875;SDS011;9570;50.854;13.778;2022-12-16T02:30:05;13.05;;;7.45;;
18875;SDS011;9570;50.854;13.778;2022-12-16T02:35:19;15.93;;;7.50;;
18875;SDS011;9570;50.854;13.778;2022-12-16T02:38:01;16.52;;;7.05;;
18875;SDS011;9570;50.854;13.778;2022-12-16T02:41:00;16.40;;;7.15;;
18875;SDS011;9570;50.854;13.778;2022-12-16T02:46:21;13.20;;;7.28;;
18875;SDS011;9570;50.854;13.778;2022-12-16T02:48:50;11.73;;;6.88;;
18875;SDS011;9570;50.854;13.778;2022-12-16T02:51:15;16.57;;;7.47;;
18875;SDS011;9570;50.854;13.778;2022-12-16T02:53:42;15.07;;;9.05;;
18875;SDS011;9570;50.854;13.778;2022-12-16T03:01:38;18.63;;;8.88;;
18875;SDS011;9570;50.854;13.778;2022-12-16T03:04:34;17.67;;;9.63;;
18875;SDS011;9570;50.854;13.778;2022-12-16T03:07:05;12.82;;;7.70;;
18875;SDS011;9570;50.854;13.778;2022-12-16T03:09:33;20.27;;;8.73;;
18875;SDS011;9570;50.854;13.778;2022-12-16T03:12:02;17.17;;;8.88;;
18875;SDS011;9570;50.854;13.778;2022-12-16T03:14:33;18.55;;;8.60;;
18875;SDS011;9570;50.854;13.778;2022-12-16T03:16:59;17.50;;;9.68;;
18875;SDS011;9570;50.854;13.778;2022-12-16T03:19:26;14.45;;;8.23;;
18875;SDS011;9570;50.854;13.778;2022-12-16T03:21:59;15.48;;;8.95;;
18875;SDS011;9570;50.854;13.778;2022-12-16T03:24:38;17.52;;;8.68;;
18875;SDS011;9570;50.854;13.778;2022-12-16T03:29:35;14.48;;;8.45;;
18875;SDS011;9570;50.854;13.778;2022-12-16T03:32:23;16.15;;;8.55;;
18875;SDS011;9570;50.854;13.778;2022-12-16T03:34:55;17.63;;;8.90;;
18875;SDS011;9570;50.854;13.778;2022-12-16T03:37:27;15.98;;;9.40;;
18875;SDS011;9570;50.854;13.778;2022-12-16T03:39:58;16.65;;;8.60;;
18875;SDS011;9570;50.854;13.778;2022-12-16T03:42:25;17.58;;;8.88;;
18875;SDS011;9570;50.854;13.778;2022-12-16T03:44:51;17.13;;;9.27;;
18875;SDS011;9570;50.854;13.778;2022-12-16T03:47:17;14.63;;;8.75;;
18875;SDS011;9570;50.854;13.778;2022-12-16T03:49:43;14.87;;;8.73;;
18875;SDS011;9570;50.854;13.778;2022-12-16T03:52:09;17.17;;;9.27;;
18875;SDS011;9570;50.854;13.778;2022-12-16T03:54:35;18.20;;;9.00;;
18875;SDS011;9570;50.854;13.778;2022-12-16T03:57:01;17.88;;;10.20;;
18875;SDS011;9570;50.854;13.778;2022-12-16T03:59:27;18.83;;;10.20;;
18875;SDS011;9570;50.854;13.778;2022-12-16T04:01:52;21.63;;;10.50;;
18875;SDS011;9570;50.854;13.778;2022-12-16T04:04:18;21.63;;;10.97;;
18875;SDS011;9570;50.854;13.778;2022-12-16T04:06:44;24.67;;;12.70;;
18875;SDS011;9570;50.854;13.778;2022-12-16T04:09:09;30.90;;;15.43;;
18875;SDS011;9570;50.854;13.778;2022-12-16T04:11:35;27.37;;;15.77;;
18875;SDS011;9570;50.854;13.778;2022-12-16T04:14:19;34.72;;;18.40;;
18875;SDS011;9570;50.854;13.778;2022-12-16T04:17:04;37.72;;;19.83;;
18875;SDS011;9570;50.854;13.778;2022-12-16T04:19:49;36.10;;;19.15;;
18875;SDS011;9570;50.854;13.778;2022-12-16T04:22:41;37.05;;;19.13;;
18875;SDS011;9570;50.854;13.778;2022-12-16T04:25:30;36.67;;;18.38;;
18875;SDS011;9570;50.854;13.778;2022-12-16T04:27:59;32.58;;;18.70;;
18875;SDS011;9570;50.854;13.778;2022-12-16T04:30:25;36.37;;;20.00;;
18875;SDS011;9570;50.854;13.778;2022-12-16T04:32:53;35.40;;;19.25;;
18875;SDS011;9570;50.854;13.778;2022-12-16T04:35:40;32.80;;;17.20;;
18875;SDS011;9570;50.854;13.778;2022-12-16T04:38:24;38.45;;;19.20;;
18875;SDS011;9570;50.854;13.778;2022-12-16T04:41:08;34.05;;;17.52;;
18875;SDS011;9570;50.854;13.778;2022-12-16T04:43:52;40.45;;;19.23;;
18875;SDS011;9570;50.854;13.778;2022-12-16T04:46:36;31.98;;;17.45;;
18875;SDS011;9570;50.854;13.778;2022-12-16T04:49:20;30.60;;;16.80;;
18875;SDS011;9570;50.854;13.778;2022-12-16T04:52:04;27.50;;;15.38;;
18875;SDS011;9570;50.854;13.778;2022-12-16T04:54:49;35.08;;;16.85;;
18875;SDS011;9570;50.854;13.778;2022-12-16T04:57:33;31.60;;;16.73;;
18875;SDS011;9570;50.854;13.778;2022-12-16T05:00:17;33.60;;;16.83;;
18875;SDS011;9570;50.854;13.778;2022-12-16T05:03:01;28.17;;;16.27;;
18875;SDS011;9570;50.854;13.778;2022-12-16T05:05:46;35.10;;;17.65;;
18875;SDS011;9570;50.854;13.778;2022-12-16T05:08:30;33.00;;;17.05;;
18875;SDS011;9570;50.854;13.778;2022-12-16T05:11:14;34.28;;;17.23;;
18875;SDS011;9570;50.854;13.778;2022-12-16T05:13:58;31.30;;;17.63;;
18875;SDS011;9570;50.854;13.778;2022-12-16T05:16:42;32.17;;;16.17;;
18875;SDS011;9570;50.854;13.778;2022-12-16T05:19:26;26.48;;;15.45;;
18875;SDS011;9570;50.854;13.778;2022-12-16T05:22:10;32.03;;;18.10;;
18875;SDS011;9570;50.854;13.778;2022-12-16T05:24:54;31.10;;;16.60;;
18875;SDS011;9570;50.854;13.778;2022-12-16T05:27:38;32.10;;;16.30;;
18875;SDS011;9570;50.854;13.778;2022-12-16T05:30:23;33.50;;;17.73;;
18875;SDS011;9570;50.854;13.778;2022-12-16T05:33:07;32.88;;;16.98;;
18875;SDS011;9570;50.854;13.778;2022-12-16T05:35:51;32.40;;;17.30;;
18875;SDS011;9570;50.854;13.778;2022-12-16T05:38:36;30.80;;;16.45;;
18875;SDS011;9570;50.854;13.778;2022-12-16T05:41:20;34.53;;;18.15;;
18875;SDS011;9570;50.854;13.778;2022-12-16T05:44:04;35.10;;;16.95;;
18875;SDS011;9570;50.854;13.778;2022-12-16T05:46:48;33.53;;;17.23;;
18875;SDS011;9570;50.854;13.778;2022-12-16T05:49:32;30.70;;;17.25;;
18875;SDS011;9570;50.854;13.778;2022-12-16T05:52:16;36.28;;;17.80;;
18875;SDS011;9570;50.854;13.778;2022-12-16T05:55:00;31.50;;;16.50;;
18875;SDS011;9570;50.854;13.778;2022-12-16T05:57:47;32.28;;;17.23;;
18875;SDS011;9570;50.854;13.778;2022-12-16T06:00:34;32.15;;;17.85;;
18875;SDS011;9570;50.854;13.778;2022-12-16T06:03:19;35.97;;;18.00;;
18875;SDS011;9570;50.854;13.778;2022-12-16T06:06:03;32.53;;;18.30;;
18875;SDS011;9570;50.854;13.778;2022-12-16T06:08:47;35.72;;;17.38;;
18875;SDS011;9570;50.854;13.778;2022-12-16T06:11:31;33.95;;;18.67;;
18875;SDS011;9570;50.854;13.778;2022-12-16T06:14:15;36.33;;;19.02;;
18875;SDS011;9570;50.854;13.778;2022-12-16T06:16:59;33.72;;;18.23;;
18875;SDS011;9570;50.854;13.778;2022-12-16T06:19:42;31.75;;;17.73;;
18875;SDS011;9570;50.854;13.778;2022-12-16T06:22:27;36.60;;;19.35;;
18875;SDS011;9570;50.854;13.778;2022-12-16T06:25:10;34.72;;;18.75;;
18875;SDS011;9570;50.854;13.778;2022-12-16T06:27:54;37.40;;;18.85;;
18875;SDS011;9570;50.854;13.778;2022-12-16T06:30:38;34.55;;;18.92;;
18875;SDS011;9570;50.854;13.778;2022-12-16T06:33:22;37.40;;;21.05;;
18875;SDS011;9570;50.854;13.778;2022-12-16T06:36:07;36.33;;;19.63;;
18875;SDS011;9570;50.854;13.778;2022-12-16T06:38:52;41.78;;;20.55;;
18875;SDS011;9570;50.854;13.778;2022-12-16T06:41:36;40.05;;;21.02;;
18875;SDS011;9570;50.854;13.778;2022-12-16T06:44:20;36.63;;;18.83;;
18875;SDS011;9570;50.854;13.778;2022-12-16T06:47:04;37.75;;;19.90;;
18875;SDS011;9570;50.854;13.778;2022-12-16T06:49:48;39.42;;;20.80;;
18875;SDS011;9570;50.854;13.778;2022-12-16T06:52:32;38.15;;;19.73;;
18875;SDS011;9570;50.854;13.778;2022-12-16T06:55:16;37.17;;;19.92;;
18875;SDS011;9570;50.854;13.778;2022-12-16T06:58:00;37.17;;;20.20;;
18875;SDS011;9570;50.854;13.778;2022-12-16T07:00:44;39.88;;;20.85;;
18875;SDS011;9570;50.854;13.778;2022-12-16T07:03:29;38.63;;;20.65;;
18875;SDS011;9570;50.854;13.778;2022-12-16T07:06:13;37.58;;;19.33;;
18875;SDS011;9570;50.854;13.778;2022-12-16T07:08:57;39.83;;;19.88;;
18875;SDS011;9570;50.854;13.778;2022-12-16T07:11:41;38.10;;;19.85;;
18875;SDS011;9570;50.854;13.778;2022-12-16T07:14:25;38.00;;;19.77;;
18875;SDS011;9570;50.854;13.778;2022-12-16T07:17:09;37.92;;;19.38;;
18875;SDS011;9570;50.854;13.778;2022-12-16T07:19:53;43.05;;;21.25;;
18875;SDS011;9570;50.854;13.778;2022-12-16T07:22:41;39.92;;;20.92;;
18875;SDS011;9570;50.854;13.778;2022-12-16T07:25:25;41.75;;;20.95;;
18875;SDS011;9570;50.854;13.778;2022-12-16T07:28:09;36.95;;;19.58;;
18875;SDS011;9570;50.854;13.778;2022-12-16T07:30:53;38.67;;;21.13;;
18875;SDS011;9570;50.854;13.778;2022-12-16T07:33:37;34.03;;;18.45;;
18875;SDS011;9570;50.854;13.778;2022-12-16T07:36:32;35.10;;;19.58;;
18875;SDS011;9570;50.854;13.778;2022-12-16T07:39:16;36.70;;;19.67;;
18875;SDS011;9570;50.854;13.778;2022-12-16T07:42:00;38.53;;;20.38;;
18875;SDS011;9570;50.854;13.778;2022-12-16T07:44:44;36.22;;;20.48;;
18875;SDS011;9570;50.854;13.778;2022-12-16T07:47:28;39.13;;;19.70;;
18875;SDS011;9570;50.854;13.778;2022-12-16T07:50:12;42.03;;;21.17;;
18875;SDS011;9570;50.854;13.778;2022-12-16T07:52:56;40.00;;;21.00;;
18875;SDS011;9570;50.854;13.778;2022-12-16T07:55:41;45.08;;;22.48;;
18875;SDS011;9570;50.854;13.778;2022-12-16T07:58:26;39.20;;;21.08;;
18875;SDS011;9570;50.854;13.778;2022-12-16T08:01:10;43.33;;;22.27;;
18875;SDS011;9570;50.854;13.778;2022-12-16T08:03:54;41.97;;;22.08;;
18875;SDS011;9570;50.854;13.778;2022-12-16T08:06:38;42.97;;;23.20;;
18875;SDS011;9570;50.854;13.778;2022-12-16T08:09:22;42.47;;;21.83;;
18875;SDS011;9570;50.854;13.778;2022-12-16T08:12:06;43.95;;;22.17;;
18875;SDS011;9570;50.854;13.778;2022-12-16T08:14:50;45.10;;;22.17;;
18875;SDS011;9570;50.854;13.778;2022-12-16T08:17:34;46.08;;;23.40;;
18875;SDS011;9570;50.854;13.778;2022-12-16T08:20:18;46.22;;;22.80;;
18875;SDS011;9570;50.854;13.778;2022-12-16T08:23:02;43.65;;;22.92;;
18875;SDS011;9570;50.854;13.778;2022-12-16T08:25:46;42.53;;;23.08;;
18875;SDS011;9570;50.854;13.778;2022-12-16T08:28:30;45.47;;;22.23;;
18875;SDS011;9570;50.854;13.778;2022-12-16T08:31:14;46.72;;;25.50;;
18875;SDS011;9570;50.854;13.778;2022-12-16T08:33:58;47.42;;;24.02;;
18875;SDS011;9570;50.854;13.778;2022-12-16T08:36:42;48.80;;;23.63;;
18875;SDS011;9570;50.854;13.778;2022-12-16T08:39:26;45.92;;;23.20;;
18875;SDS011;9570;50.854;13.778;2022-12-16T08:42:10;43.42;;;22.98;;
18875;SDS011;9570;50.854;13.778;2022-12-16T08:44:54;49.42;;;24.65;;
18875;SDS011;9570;50.854;13.778;2022-12-16T08:47:38;45.88;;;24.45;;
18875;SDS011;9570;50.854;13.778;2022-12-16T08:50:22;46.47;;;23.85;;
18875;SDS011;9570;50.854;13.778;2022-12-16T08:53:06;46.75;;;24.33;;
18875;SDS011;9570;50.854;13.778;2022-12-16T08:55:50;45.50;;;23.75;;
18875;SDS011;9570;50.854;13.778;2022-12-16T08:58:42;50.63;;;24.60;;
18875;SDS011;9570;50.854;13.778;2022-12-16T09:01:26;44.88;;;23.83;;
18875;SDS011;9570;50.854;13.778;2022-12-16T09:04:10;44.95;;;24.50;;
18875;SDS011;9570;50.854;13.778;2022-12-16T09:06:54;46.78;;;25.38;;
18875;SDS011;9570;50.854;13.778;2022-12-16T09:09:38;46.35;;;25.13;;
18875;SDS011;9570;50.854;13.778;2022-12-16T09:12:22;50.63;;;26.85;;
18875;SDS011;9570;50.854;13.778;2022-12-16T09:15:06;50.28;;;25.75;;
18875;SDS011;9570;50.854;13.778;2022-12-16T09:17:54;49.05;;;26.02;;
18875;SDS011;9570;50.854;13.778;2022-12-16T09:20:38;48.72;;;26.20;;
18875;SDS011;9570;50.854;13.778;2022-12-16T09:23:23;50.75;;;25.88;;
18875;SDS011;9570;50.854;13.778;2022-12-16T09:26:07;51.72;;;27.58;;
18875;SDS011;9570;50.854;13.778;2022-12-16T09:28:51;50.13;;;27.23;;
18875;SDS011;9570;50.854;13.778;2022-12-16T09:31:35;46.42;;;25.20;;
18875;SDS011;9570;50.854;13.778;2022-12-16T09:34:19;51.47;;;25.20;;
18875;SDS011;9570;50.854;13.778;2022-12-16T09:37:03;49.47;;;26.45;;
18875;SDS011;9570;50.854;13.778;2022-12-16T09:39:47;45.80;;;25.60;;
18875;SDS011;9570;50.854;13.778;2022-12-16T09:42:47;50.00;;;27.67;;
18875;SDS011;9570;50.854;13.778;2022-12-16T09:45:40;53.42;;;28.02;;
18875;SDS011;9570;50.854;13.778;2022-12-16T09:49:00;54.42;;;27.88;;
18875;SDS011;9570;50.854;13.778;2022-12-16T09:51:59;49.47;;;26.55;;
18875;SDS011;9570;50.854;13.778;2022-12-16T09:55:03;48.13;;;25.20;;
18875;SDS011;9570;50.854;13.778;2022-12-16T09:57:48;52.10;;;27.83;;
18875;SDS011;9570;50.854;13.778;2022-12-16T10:00:33;52.80;;;28.58;;
18875;SDS011;9570;50.854;13.778;2022-12-16T10:03:26;59.63;;;30.38;;
18875;SDS011;9570;50.854;13.778;2022-12-16T10:12:12;65.78;;;33.80;;
18875;SDS011;9570;50.854;13.778;2022-12-16T10:22:02;66.68;;;33.00;;
18875;SDS011;9570;50.854;13.778;2022-12-16T10:28:12;68.72;;;35.63;;
18875;SDS011;9570;50.854;13.778;2022-12-16T10:31:02;73.80;;;35.03;;
18875;SDS011;9570;50.854;13.778;2022-12-16T10:33:54;69.95;;;34.58;;
18875;SDS011;9570;50.854;13.778;2022-12-16T10:36:38;67.43;;;35.47;;
18875;SDS011;9570;50.854;13.778;2022-12-16T10:39:26;68.28;;;35.40;;
18875;SDS011;9570;50.854;13.778;2022-12-16T10:42:27;70.55;;;34.78;;
18875;SDS011;9570;50.854;13.778;2022-12-16T10:45:21;66.28;;;33.10;;
18875;SDS011;9570;50.854;13.778;2022-12-16T10:48:22;71.03;;;33.40;;
18875;SDS011;9570;50.854;13.778;2022-12-16T10:51:13;70.45;;;34.17;;
18875;SDS011;9570;50.854;13.778;2022-12-16T10:54:00;61.28;;;31.48;;
18875;SDS011;9570;50.854;13.778;2022-12-16T11:00:09;67.97;;;33.63;;
18875;SDS011;9570;50.854;13.778;2022-12-16T11:03:19;69.95;;;34.22;;
18875;SDS011;9570;50.854;13.778;2022-12-16T11:06:05;71.90;;;34.92;;
18875;SDS011;9570;50.854;13.778;2022-12-16T11:08:50;61.78;;;31.92;;
18875;SDS011;9570;50.854;13.778;2022-12-16T11:11:34;66.53;;;34.38;;
18875;SDS011;9570;50.854;13.778;2022-12-16T11:14:31;72.80;;;35.97;;
18875;SDS011;9570;50.854;13.778;2022-12-16T11:17:22;72.80;;;34.90;;
18875;SDS011;9570;50.854;13.778;2022-12-16T11:26:20;67.93;;;32.55;;
18875;SDS011;9570;50.854;13.778;2022-12-16T11:29:12;68.13;;;34.17;;
18875;SDS011;9570;50.854;13.778;2022-12-16T11:31:58;72.32;;;35.47;;
18875;SDS011;9570;50.854;13.778;2022-12-16T11:34:59;72.40;;;34.75;;
18875;SDS011;9570;50.854;13.778;2022-12-16T11:37:47;68.47;;;33.47;;
18875;SDS011;9570;50.854;13.778;2022-12-16T11:40:33;73.72;;;36.05;;
18875;SDS011;9570;50.854;13.778;2022-12-16T11:43:17;72.80;;;34.40;;
18875;SDS011;9570;50.854;13.778;2022-12-16T11:46:04;71.55;;;34.55;;
18875;SDS011;9570;50.854;13.778;2022-12-16T11:49:08;68.80;;;33.58;;
18875;SDS011;9570;50.854;13.778;2022-12-16T11:52:01;68.05;;;34.65;;
18875;SDS011;9570;50.854;13.778;2022-12-16T11:54:59;72.35;;;34.72;;
18875;SDS011;9570;50.854;13.778;2022-12-16T12:01:31;67.45;;;33.10;;
18875;SDS011;9570;50.854;13.778;2022-12-16T12:04:35;69.85;;;34.47;;
18875;SDS011;9570;50.854;13.778;2022-12-16T12:16:24;69.38;;;32.08;;
18875;SDS011;9570;50.854;13.778;2022-12-16T12:22:52;63.60;;;32.35;;
18875;SDS011;9570;50.854;13.778;2022-12-16T12:26:05;69.82;;;33.53;;
18875;SDS011;9570;50.854;13.778;2022-12-16T12:28:58;64.78;;;33.30;;
18875;SDS011;9570;50.854;13.778;2022-12-16T12:32:15;68.65;;;34.03;;
18875;SDS011;9570;50.854;13.778;2022-12-16T12:35:08;67.47;;;33.60;;
18875;SDS011;9570;50.854;13.778;2022-12-16T12:38:19;64.20;;;31.50;;
18875;SDS011;9570;50.854;13.778;2022-12-16T12:41:31;65.35;;;32.05;;
18875;SDS011;9570;50.854;13.778;2022-12-16T12:47:41;66.13;;;34.03;;
18875;SDS011;9570;50.854;13.778;2022-12-16T12:50:47;66.93;;;33.35;;
18875;SDS011;9570;50.854;13.778;2022-12-16T12:59:41;69.70;;;35.30;;
18875;SDS011;9570;50.854;13.778;2022-12-16T13:02:42;70.03;;;34.45;;
18875;SDS011;9570;50.854;13.778;2022-12-16T13:05:47;69.97;;;35.35;;
18875;SDS011;9570;50.854;13.778;2022-12-16T13:11:22;63.85;;;32.88;;
18875;SDS011;9570;50.854;13.778;2022-12-16T13:17:19;71.13;;;35.92;;
18875;SDS011;9570;50.854;13.778;2022-12-16T13:26:13;69.55;;;35.30;;
18875;SDS011;9570;50.854;13.778;2022-12-16T13:29:12;68.00;;;33.42;;
18875;SDS011;9570;50.854;13.778;2022-12-16T13:32:03;65.82;;;34.70;;
18875;SDS011;9570;50.854;13.778;2022-12-16T13:37:51;74.05;;;35.85;;
18875;SDS011;9570;50.854;13.778;2022-12-16T13:46:51;70.45;;;36.60;;
18875;SDS011;9570;50.854;13.778;2022-12-16T13:58:16;74.22;;;34.38;;
18875;SDS011;9570;50.854;13.778;2022-12-16T14:01:10;70.38;;;35.75;;
18875;SDS011;9570;50.854;13.778;2022-12-16T14:03:55;67.80;;;34.17;;
18875;SDS011;9570;50.854;13.778;2022-12-16T14:06:42;68.75;;;34.60;;
18875;SDS011;9570;50.854;13.778;2022-12-16T14:09:28;71.68;;;34.65;;
18875;SDS011;9570;50.854;13.778;2022-12-16T14:12:41;75.60;;;37.60;;
18875;SDS011;9570;50.854;13.778;2022-12-16T14:19:11;78.10;;;38.25;;
18875;SDS011;9570;50.854;13.778;2022-12-16T14:28:22;74.38;;;37.25;;
18875;SDS011;9570;50.854;13.778;2022-12-16T14:31:22;73.63;;;37.45;;
18875;SDS011;9570;50.854;13.778;2022-12-16T14:34:19;74.88;;;37.10;;
18875;SDS011;9570;50.854;13.778;2022-12-16T14:43:02;68.80;;;35.03;;
18875;SDS011;9570;50.854;13.778;2022-12-16T14:45:54;65.60;;;32.97;;
18875;SDS011;9570;50.854;13.778;2022-12-16T14:48:38;67.15;;;33.15;;
18875;SDS011;9570;50.854;13.778;2022-12-16T14:51:23;67.30;;;34.58;;
18875;SDS011;9570;50.854;13.778;2022-12-16T14:54:16;71.53;;;33.50;;
18875;SDS011;9570;50.854;13.778;2022-12-16T14:57:04;65.38;;;34.33;;
18875;SDS011;9570;50.854;13.778;2022-12-16T15:00:10;67.43;;;34.78;;
18875;SDS011;9570;50.854;13.778;2022-12-16T15:05:49;60.97;;;31.25;;
18875;SDS011;9570;50.854;13.778;2022-12-16T15:08:46;63.58;;;33.15;;
18875;SDS011;9570;50.854;13.778;2022-12-16T15:11:32;63.50;;;33.13;;
18875;SDS011;9570;50.854;13.778;2022-12-16T15:14:22;65.80;;;31.85;;
18875;SDS011;9570;50.854;13.778;2022-12-16T15:17:26;65.97;;;31.70;;
18875;SDS011;9570;50.854;13.778;2022-12-16T15:20:22;60.42;;;31.45;;
18875;SDS011;9570;50.854;13.778;2022-12-16T15:23:14;61.92;;;31.88;;
18875;SDS011;9570;50.854;13.778;2022-12-16T15:26:03;55.70;;;29.67;;
18875;SDS011;9570;50.854;13.778;2022-12-16T15:28:48;59.67;;;31.20;;
18875;SDS011;9570;50.854;13.778;2022-12-16T15:31:33;60.00;;;30.30;;
18875;SDS011;9570;50.854;13.778;2022-12-16T15:34:21;61.60;;;32.90;;
18875;SDS011;9570;50.854;13.778;2022-12-16T15:37:23;64.93;;;32.40;;
18875;SDS011;9570;50.854;13.778;2022-12-16T15:40:28;64.70;;;32.78;;
18875;SDS011;9570;50.854;13.778;2022-12-16T15:43:19;64.97;;;33.53;;
18875;SDS011;9570;50.854;13.778;2022-12-16T15:46:20;60.30;;;31.35;;
18875;SDS011;9570;50.854;13.778;2022-12-16T15:49:19;61.97;;;31.85;;
18875;SDS011;9570;50.854;13.778;2022-12-16T15:52:29;64.47;;;34.33;;
18875;SDS011;9570;50.854;13.778;2022-12-16T15:58:35;64.68;;;33.25;;
18875;SDS011;9570;50.854;13.778;2022-12-16T16:01:23;69.13;;;34.20;;
18875;SDS011;9570;50.854;13.778;2022-12-16T16:07:01;61.50;;;32.10;;
18875;SDS011;9570;50.854;13.778;2022-12-16T16:09:46;60.42;;;31.80;;
18875;SDS011;9570;50.854;13.778;2022-12-16T16:12:30;65.00;;;34.67;;
18875;SDS011;9570;50.854;13.778;2022-12-16T16:15:14;66.72;;;31.38;;
18875;SDS011;9570;50.854;13.778;2022-12-16T16:18:00;65.13;;;33.72;;
18875;SDS011;9570;50.854;13.778;2022-12-16T16:20:46;65.40;;;34.45;;
18875;SDS011;9570;50.854;13.778;2022-12-16T16:23:31;62.58;;;32.08;;
18875;SDS011;9570;50.854;13.778;2022-12-16T16:26:16;59.20;;;29.73;;
18875;SDS011;9570;50.854;13.778;2022-12-16T16:29:03;58.90;;;31.17;;
18875;SDS011;9570;50.854;13.778;2022-12-16T16:31:47;56.80;;;30.23;;
18875;SDS011;9570;50.854;13.778;2022-12-16T16:34:31;57.47;;;29.58;;
18875;SDS011;9570;50.854;13.778;2022-12-16T16:37:16;56.22;;;29.95;;
18875;SDS011;9570;50.854;13.778;2022-12-16T16:40:17;54.47;;;29.77;;
18875;SDS011;9570;50.854;13.778;2022-12-16T16:43:07;54.97;;;29.25;;
18875;SDS011;9570;50.854;13.778;2022-12-16T16:45:52;58.53;;;30.50;;
18875;SDS011;9570;50.854;13.778;2022-12-16T16:48:38;64.75;;;31.17;;
18875;SDS011;9570;50.854;13.778;2022-12-16T16:51:22;64.53;;;33.00;;
18875;SDS011;9570;50.854;13.778;2022-12-16T16:54:06;61.92;;;32.75;;
18875;SDS011;9570;50.854;13.778;2022-12-16T16:56:50;65.43;;;33.47;;
18875;SDS011;9570;50.854;13.778;2022-12-16T16:59:34;66.47;;;33.72;;
18875;SDS011;9570;50.854;13.778;2022-12-16T17:02:20;65.10;;;32.63;;
18875;SDS011;9570;50.854;13.778;2022-12-16T17:05:05;65.60;;;32.58;;
18875;SDS011;9570;50.854;13.778;2022-12-16T17:07:50;66.10;;;32.33;;
18875;SDS011;9570;50.854;13.778;2022-12-16T17:10:34;59.30;;;30.88;;
18875;SDS011;9570;50.854;13.778;2022-12-16T17:13:19;57.88;;;31.30;;
18875;SDS011;9570;50.854;13.778;2022-12-16T17:16:03;61.85;;;32.40;;
18875;SDS011;9570;50.854;13.778;2022-12-16T17:18:47;57.83;;;30.77;;
18875;SDS011;9570;50.854;13.778;2022-12-16T17:21:32;61.67;;;31.55;;
18875;SDS011;9570;50.854;13.778;2022-12-16T17:24:16;62.63;;;33.55;;
18875;SDS011;9570;50.854;13.778;2022-12-16T17:27:33;65.95;;;32.75;;
18875;SDS011;9570;50.854;13.778;2022-12-16T17:30:16;59.03;;;30.63;;
18875;SDS011;9570;50.854;13.778;2022-12-16T17:33:02;59.92;;;30.15;;
18875;SDS011;9570;50.854;13.778;2022-12-16T17:35:48;57.80;;;29.20;;
18875;SDS011;9570;50.854;13.778;2022-12-16T17:38:37;58.83;;;30.30;;
18875;SDS011;9570;50.854;13.778;2022-12-16T17:41:22;60.33;;;31.88;;
18875;SDS011;9570;50.854;13.778;2022-12-16T17:44:06;56.58;;;28.85;;
18875;SDS011;9570;50.854;13.778;2022-12-16T17:46:50;57.85;;;30.88;;
18875;SDS011;9570;50.854;13.778;2022-12-16T17:49:34;60.15;;;31.13;;
18875;SDS011;9570;50.854;13.778;2022-12-16T17:52:18;63.80;;;30.90;;
18875;SDS011;9570;50.854;13.778;2022-12-16T17:55:02;56.08;;;30.02;;
18875;SDS011;9570;50.854;13.778;2022-12-16T17:57:46;61.03;;;31.75;;
18875;SDS011;9570;50.854;13.778;2022-12-16T18:00:30;60.72;;;29.35;;
18875;SDS011;9570;50.854;13.778;2022-12-16T18:03:14;57.47;;;29.42;;
18875;SDS011;9570;50.854;13.778;2022-12-16T18:05:58;63.35;;;29.77;;
18875;SDS011;9570;50.854;13.778;2022-12-16T18:08:42;60.22;;;30.90;;
18875;SDS011;9570;50.854;13.778;2022-12-16T18:11:26;60.17;;;30.38;;
18875;SDS011;9570;50.854;13.778;2022-12-16T18:14:10;59.92;;;29.73;;
18875;SDS011;9570;50.854;13.778;2022-12-16T18:16:54;55.90;;;30.08;;